Endeavour — VNJC — position and weather

sailwx.info

Track history (hours):
 
Tides and Currents Weather Stations Pressure Air Temp Water Temp Dewpoint Dewpoint Depression Visibility Wind Speed Wind Dir Waves Ship Positions

Endeavour (Australia)

Ship's website: http://www.anmm.gov.au/

Last reported at 2019-May-22 08:02 UTC. Time now 2019-Jun-16 15:25 UTC.
Position S 33°52' E 151°12'.
Warning: this ship's position is 25 days out of date.

Length 44 m; draft 3.9 m.

Type: Sailing vessel. MMSI: 503094000.

Date/timePositionNaut miles runAvg speedWind from/ knotsBaromVisibWave heightAir tempDewpointWater temp
2019-May-22 08:02S 33°52' E 151°12'0 0.1
2019-May-22 08:00S 33°52' E 151°12'1 1.4
2019-May-22 07:28S 33°51' E 151°12'3 5.7
2019-May-22 07:00S 33°51' E 151°15'3 5.5
2019-May-22 06:28S 33°50' E 151°18'2 4.7
2019-May-22 06:00S 33°48' E 151°20'2 3.7
2019-May-22 05:30S 33°47' E 151°22'2 4.3
2019-May-22 05:00S 33°47' E 151°24'1 2.9
2019-May-22 04:30S 33°48' E 151°24'2 3.2
2019-May-22 04:00S 33°50' E 151°23'1 2.5
2019-May-22 03:30S 33°51' E 151°22'3 5.2
2019-May-22 03:00S 33°50' E 151°19'3 5.1
2019-May-22 02:19S 33°51' E 151°15'2 6.4
2019-May-22 02:00S 33°51' E 151°12'1 1.7
2019-May-22 01:26S 33°52' E 151°12'0 0.0
2019-May-22 00:56S 33°52' E 151°12'0 0.0
2019-May-22 00:20S 33°52' E 151°12'0 0.0
2019-May-21 23:56S 33°52' E 151°12'0 0.0
2019-May-21 23:26S 33°52' E 151°12'0 0.0
2019-May-21 22:56S 33°52' E 151°12'0 0.0
2019-May-21 22:26S 33°52' E 151°12'0 0.0
2019-May-21 22:00S 33°52' E 151°12'0 0.0
2019-May-20 00:24S 33°52' E 151°12'0 0.0
2019-May-20 00:00S 33°52' E 151°12'1 2.4
2019-May-19 23:31S 33°51' E 151°13'2 3.6
2019-May-19 22:59S 33°51' E 151°15'1 1.4
2019-May-19 22:28S 33°52' E 151°16'0 0.0
2019-May-19 21:55S 33°52' E 151°16'0 0.0
2019-May-19 21:28S 33°52' E 151°16'0 0.0
2019-May-19 20:58S 33°52' E 151°16'0 0.0
2019-May-19 20:28S 33°52' E 151°16'0 0.0
2019-May-19 19:58S 33°52' E 151°16'0 0.0
2019-May-19 19:28S 33°52' E 151°16'0 0.0
2019-May-19 18:58S 33°52' E 151°16'0 0.0
2019-May-19 18:25S 33°52' E 151°16'0 0.0
2019-May-19 17:58S 33°52' E 151°16'0 0.0
2019-May-19 17:28S 33°52' E 151°16'0 0.0
2019-May-19 16:58S 33°52' E 151°16'0 0.0
2019-May-19 16:28S 33°52' E 151°16'0 0.0
2019-May-19 15:55S 33°52' E 151°16'0 0.0
2019-May-19 15:28S 33°52' E 151°16'0 0.0
2019-May-19 14:58S 33°52' E 151°16'0 0.0
2019-May-19 14:25S 33°52' E 151°16'0 0.0
2019-May-19 13:58S 33°52' E 151°16'0 0.0
2019-May-19 13:25S 33°52' E 151°16'0 0.0
2019-May-19 12:55S 33°52' E 151°16'0 0.0
2019-May-19 12:22S 33°52' E 151°16'0 0.0
2019-May-19 11:58S 33°52' E 151°16'0 0.1
2019-May-19 11:28S 33°52' E 151°16'0 0.0
2019-May-19 10:58S 33°52' E 151°16'0 0.1
2019-May-19 09:49S 33°52' E 151°16'0 0.0
2019-May-19 09:25S 33°52' E 151°16'0 0.0
2019-May-19 08:58S 33°52' E 151°16'0 0.0
2019-May-19 08:19S 33°52' E 151°16'0 0.0
2019-May-19 07:58S 33°52' E 151°16'0 0.0
2019-May-19 07:28S 33°52' E 151°16'0 0.0
2019-May-19 06:40S 33°52' E 151°16'0 0.3
2019-May-19 06:30S 33°52' E 151°16'2 4.6
2019-May-19 06:00S 33°50' E 151°17'3 6.2
2019-May-19 05:30S 33°50' E 151°20'2 3.9
2019-May-19 05:00S 33°50' E 151°23'2 4.7
2019-May-19 04:30S 33°48' E 151°23'2 4.4
2019-May-19 04:00S 33°46' E 151°23'2 4.2
2019-May-19 03:30S 33°44' E 151°23'2 4.2
2019-May-19 03:00S 33°42' E 151°23'2 4.2
2019-May-19 02:30S 33°39' E 151°23'17 3.7
2019-May-18 21:53S 33°25' E 151°35'2 3.5
2019-May-18 21:25S 33°24' E 151°36'23 2.0
2019-May-18 09:58S 33°12' E 151°60'2 4.3
2019-May-18 09:30S 33°10' E 151°60'2 4.3
2019-May-18 09:00S 33°08' E 151°60'2 4.2
2019-May-18 08:29S 33°06' E 151°60'6 3.7
2019-May-18 06:53S 33°00' E 151°57'2 3.4
2019-May-18 06:26S 32°59' E 151°57'1 3.6
2019-May-18 06:00S 32°58' E 151°56'2 4.0
2019-May-18 05:30S 32°56' E 151°58'2 4.0
2019-May-18 05:00S 32°55' E 151°59'2 4.3
2019-May-18 04:30S 32°53' E 152°01'2 4.4
2019-May-18 04:00S 32°52' E 152°03'1 2.0
2019-May-18 03:30S 32°52' E 152°04'2 4.4
2019-May-18 03:00S 32°50' E 152°07'2 4.4
2019-May-18 02:30S 32°49' E 152°09'2 4.2
2019-May-18 02:00S 32°49' E 152°11'2 4.1
2019-May-18 01:30S 32°47' E 152°13'2 4.3
2019-May-18 01:00S 32°46' E 152°15'2 4.0
2019-May-18 00:30S 32°45' E 152°17'2 3.6
2019-May-18 00:00S 32°43' E 152°18'2 4.9
2019-May-17 23:30S 32°42' E 152°21'2 4.7
2019-May-17 23:00S 32°40' E 152°23'2 4.9
2019-May-17 22:30S 32°39' E 152°25'3 5.0
2019-May-17 21:50S 32°37' E 152°28'4 5.8
2019-May-17 21:11S 32°34' E 152°32'  
Track history (hours):
 
Tides and Currents Weather Stations Pressure Air Temp Water Temp Dewpoint Dewpoint Depression Visibility Wind Speed Wind Dir Waves Ship Positions

Endeavour (Australia)

Ship's website: http://www.anmm.gov.au/

Last reported at 2019-May-22 08:02 UTC. Time now 2019-Jun-16 15:25 UTC.
Position S 33°52' E 151°12'.
Warning: this ship's position is 25 days out of date.

Length 44 m; draft 3.9 m.

Type: Sailing vessel. MMSI: 503094000.

Date/timePositionNaut miles runAvg speedWind from/ knotsBaromVisibWave heightAir tempDewpointWater temp
2019-May-22 08:02S 33°52' E 151°12'0 0.1
2019-May-22 08:00S 33°52' E 151°12'1 1.4
2019-May-22 07:28S 33°51' E 151°12'3 5.7
2019-May-22 07:00S 33°51' E 151°15'3 5.5
2019-May-22 06:28S 33°50' E 151°18'2 4.7
2019-May-22 06:00S 33°48' E 151°20'2 3.7
2019-May-22 05:30S 33°47' E 151°22'2 4.3
2019-May-22 05:00S 33°47' E 151°24'1 2.9
2019-May-22 04:30S 33°48' E 151°24'2 3.2
2019-May-22 04:00S 33°50' E 151°23'1 2.5
2019-May-22 03:30S 33°51' E 151°22'3 5.2
2019-May-22 03:00S 33°50' E 151°19'3 5.1
2019-May-22 02:19S 33°51' E 151°15'2 6.4
2019-May-22 02:00S 33°51' E 151°12'1 1.7
2019-May-22 01:26S 33°52' E 151°12'0 0.0
2019-May-22 00:56S 33°52' E 151°12'0 0.0
2019-May-22 00:20S 33°52' E 151°12'0 0.0
2019-May-21 23:56S 33°52' E 151°12'0 0.0
2019-May-21 23:26S 33°52' E 151°12'0 0.0
2019-May-21 22:56S 33°52' E 151°12'0 0.0
2019-May-21 22:26S 33°52' E 151°12'0 0.0
2019-May-21 22:00S 33°52' E 151°12'0 0.0
2019-May-20 00:24S 33°52' E 151°12'0 0.0
2019-May-20 00:00S 33°52' E 151°12'1 2.4
2019-May-19 23:31S 33°51' E 151°13'2 3.6
2019-May-19 22:59S 33°51' E 151°15'1 1.4
2019-May-19 22:28S 33°52' E 151°16'0 0.0
2019-May-19 21:55S 33°52' E 151°16'0 0.0
2019-May-19 21:28S 33°52' E 151°16'0 0.0
2019-May-19 20:58S 33°52' E 151°16'0 0.0
2019-May-19 20:28S 33°52' E 151°16'0 0.0
2019-May-19 19:58S 33°52' E 151°16'0 0.0
2019-May-19 19:28S 33°52' E 151°16'0 0.0
2019-May-19 18:58S 33°52' E 151°16'0 0.0
2019-May-19 18:25S 33°52' E 151°16'0 0.0
2019-May-19 17:58S 33°52' E 151°16'0 0.0
2019-May-19 17:28S 33°52' E 151°16'0 0.0
2019-May-19 16:58S 33°52' E 151°16'0 0.0
2019-May-19 16:28S 33°52' E 151°16'0 0.0
2019-May-19 15:55S 33°52' E 151°16'0 0.0
2019-May-19 15:28S 33°52' E 151°16'0 0.0
2019-May-19 14:58S 33°52' E 151°16'0 0.0
2019-May-19 14:25S 33°52' E 151°16'0 0.0
2019-May-19 13:58S 33°52' E 151°16'0 0.0
2019-May-19 13:25S 33°52' E 151°16'0 0.0
2019-May-19 12:55S 33°52' E 151°16'0 0.0
2019-May-19 12:22S 33°52' E 151°16'0 0.0
2019-May-19 11:58S 33°52' E 151°16'0 0.1
2019-May-19 11:28S 33°52' E 151°16'0 0.0
2019-May-19 10:58S 33°52' E 151°16'0 0.1
2019-May-19 09:49S 33°52' E 151°16'0 0.0
2019-May-19 09:25S 33°52' E 151°16'0 0.0
2019-May-19 08:58S 33°52' E 151°16'0 0.0
2019-May-19 08:19S 33°52' E 151°16'0 0.0
2019-May-19 07:58S 33°52' E 151°16'0 0.0
2019-May-19 07:28S 33°52' E 151°16'0 0.0
2019-May-19 06:40S 33°52' E 151°16'0 0.3
2019-May-19 06:30S 33°52' E 151°16'2 4.6
2019-May-19 06:00S 33°50' E 151°17'3 6.2
2019-May-19 05:30S 33°50' E 151°20'2 3.9
2019-May-19 05:00S 33°50' E 151°23'2 4.7
2019-May-19 04:30S 33°48' E 151°23'2 4.4
2019-May-19 04:00S 33°46' E 151°23'2 4.2
2019-May-19 03:30S 33°44' E 151°23'2 4.2
2019-May-19 03:00S 33°42' E 151°23'2 4.2
2019-May-19 02:30S 33°39' E 151°23'17 3.7
2019-May-18 21:53S 33°25' E 151°35'2 3.5
2019-May-18 21:25S 33°24' E 151°36'23 2.0
2019-May-18 09:58S 33°12' E 151°60'2 4.3
2019-May-18 09:30S 33°10' E 151°60'2 4.3
2019-May-18 09:00S 33°08' E 151°60'2 4.2
2019-May-18 08:29S 33°06' E 151°60'6 3.7
2019-May-18 06:53S 33°00' E 151°57'2 3.4
2019-May-18 06:26S 32°59' E 151°57'1 3.6
2019-May-18 06:00S 32°58' E 151°56'2 4.0
2019-May-18 05:30S 32°56' E 151°58'2 4.0
2019-May-18 05:00S 32°55' E 151°59'2 4.3
2019-May-18 04:30S 32°53' E 152°01'2 4.4
2019-May-18 04:00S 32°52' E 152°03'1 2.0
2019-May-18 03:30S 32°52' E 152°04'2 4.4
2019-May-18 03:00S 32°50' E 152°07'2 4.4
2019-May-18 02:30S 32°49' E 152°09'2 4.2
2019-May-18 02:00S 32°49' E 152°11'2 4.1
2019-May-18 01:30S 32°47' E 152°13'2 4.3
2019-May-18 01:00S 32°46' E 152°15'2 4.0
2019-May-18 00:30S 32°45' E 152°17'2 3.6
2019-May-18 00:00S 32°43' E 152°18'2 4.9
2019-May-17 23:30S 32°42' E 152°21'2 4.7
2019-May-17 23:00S 32°40' E 152°23'2 4.9
2019-May-17 22:30S 32°39' E 152°25'3 5.0
2019-May-17 21:50S 32°37' E 152°28'4 5.8
2019-May-17 21:11S 32°34' E 152°32'  

Dump ship's entire track history